Time;durP1;ratioP1;P1;durP2;ratioP2;P2;SDS_P1;SDS_P2;PMS_P1;PMS_P2;Temp;Humidity;BMP_temperature;BMP_pressure;BME280_temperature;BME280_humidity;BME280_pressure;Samples;Min_cycle;Max_cycle;Signal;HPM_P1;HPM_P2
2021/05/11 00:01:20;;;;;;;10.20;6.03;;;;;;;9.13;65.19;99450.81;5111146;28;20115;-91
2021/05/11 00:03:54;;;;;;;13.55;6.00;;;;;;;9.09;65.58;99443.59;5111891;28;20052;-78
2021/05/11 00:06:20;;;;;;;9.32;6.28;;;;;;;9.03;65.75;99450.72;5118455;28;20027;-90
2021/05/11 00:12:10;;;;;;;9.10;6.28;;;;;;;9.01;65.82;99439.53;5115449;28;20084;-79
2021/05/11 00:14:36;;;;;;;11.07;6.68;;;;;;;9.02;65.57;99438.47;5113270;28;20020;-81
2021/05/11 00:17:02;;;;;;;15.00;6.78;;;;;;;9.04;65.55;99430.22;5112192;28;20011;-84
2021/05/11 00:32:38;;;;;;;9.75;6.15;;;;;;;9.15;65.18;99434.53;5110756;28;20096;-87
2021/05/11 00:35:04;;;;;;;6.55;5.53;;;;;;;9.13;65.53;99424.16;5110780;28;20028;-82
2021/05/11 00:37:31;;;;;;;7.38;4.53;;;;;;;9.17;65.62;99429.78;5110507;28;20031;-83
2021/05/11 00:40:00;;;;;;;9.75;5.30;;;;;;;9.17;65.22;99421.75;5111751;28;20030;-80
2021/05/11 00:42:29;;;;;;;10.75;5.63;;;;;;;9.11;65.12;99410.25;5110142;28;20023;-86
2021/05/11 00:44:54;;;;;;;12.00;5.63;;;;;;;9.21;64.81;99417.50;5109923;28;20114;-86
2021/05/11 00:47:20;;;;;;;7.82;5.53;;;;;;;9.23;64.59;99420.72;5111033;28;20141;-82
2021/05/11 00:49:48;;;;;;;7.40;4.90;;;;;;;9.26;63.97;99419.41;5109942;28;20016;-82
2021/05/11 00:52:13;;;;;;;9.43;4.30;;;;;;;9.28;63.76;99415.41;5110780;28;20008;-85
2021/05/11 00:54:39;;;;;;;3.97;3.47;;;;;;;9.29;63.31;99413.56;5093091;28;20046;-82
2021/05/11 00:57:04;;;;;;;4.63;2.80;;;;;;;9.29;62.31;99411.69;5110029;28;20052;-82
2021/05/11 00:59:31;;;;;;;3.85;3.40;;;;;;;9.28;62.36;99412.75;5109881;28;20036;-78
2021/05/11 01:01:58;;;;;;;4.05;2.60;;;;;;;9.29;62.13;99414.38;5110173;28;20051;-77
2021/05/11 01:04:24;;;;;;;5.00;2.90;;;;;;;9.29;62.12;99418.91;5109873;28;20020;-77
2021/05/11 01:06:50;;;;;;;5.30;2.75;;;;;;;9.26;61.75;99414.91;5098169;28;20035;-77
2021/05/11 01:09:16;;;;;;;2.72;2.53;;;;;;;9.26;61.80;99416.75;5109982;28;20038;-76
2021/05/11 01:11:43;;;;;;;2.58;2.38;;;;;;;9.25;61.49;99407.13;5110089;28;20106;-78
2021/05/11 01:14:09;;;;;;;3.72;2.80;;;;;;;9.23;61.86;99411.94;5110015;28;20119;-77
2021/05/11 01:16:34;;;;;;;5.50;2.83;;;;;;;9.24;61.54;99419.69;5109947;28;20545;-77
2021/05/11 01:19:06;;;;;;;3.85;2.38;;;;;;;9.21;61.68;99417.50;5109589;28;20030;-76
2021/05/11 01:29:29;;;;;;;6.57;4.40;;;;;;;9.09;62.74;99411.56;5110815;28;20445;-76
2021/05/11 02:25:47;;;;;;;8.02;4.70;;;;;;;8.82;64.08;99383.09;5127760;28;20028;-92
2021/05/11 02:29:02;;;;;;;4.45;3.65;;;;;;;8.78;63.49;99385.47;5125813;28;20063;-88
2021/05/11 02:31:51;;;;;;;7.80;3.65;;;;;;;8.76;63.50;99389.47;5124586;28;20039;-92
2021/05/11 02:34:20;;;;;;;;;;;;;;;8.75;63.16;99395.84;5113672;28;20041;-89
2021/05/11 02:37:05;;;;;;;4.80;3.70;;;;;;;8.69;63.04;99395.03;5117055;28;19958;-79
2021/05/11 02:39:43;;;;;;;5.80;3.83;;;;;;;8.66;62.86;99392.84;5113866;28;20059;-84
2021/05/11 02:52:28;;;;;;;7.88;3.78;;;;;;;8.51;63.52;99393.53;5124771;28;20042;-81
2021/05/11 02:55:14;;;;;;;6.55;5.88;;;;;;;8.52;64.28;99387.16;5120527;28;20032;-80
2021/05/11 03:01:05;;;;;;;4.30;3.58;;;;;;;8.47;64.08;99398.56;5125222;28;20414;-82
2021/05/11 03:06:39;;;;;;;4.90;3.30;;;;;;;8.40;63.78;99389.94;5135047;28;19933;-88
2021/05/11 03:10:04;;;;;;;5.25;3.97;;;;;;;8.39;63.84;99383.00;5137646;28;20032;-86
2021/05/11 03:13:33;;;;;;;8.20;3.83;;;;;;;8.46;63.27;99390.81;5045410;28;20064;-81
2021/05/11 03:17:16;;;;;;;3.95;3.40;;;;;;;8.67;63.75;99394.47;5038143;28;20032;-85
2021/05/11 03:19:41;;;;;;;7.97;3.33;;;;;;;8.97;63.22;99390.41;5018585;28;20025;-82
2021/05/11 03:22:08;;;;;;;4.70;3.30;;;;;;;9.29;62.35;99392.22;5058088;28;20144;-85
2021/05/11 03:24:43;;;;;;;3.88;3.00;;;;;;;9.68;61.43;99391.88;5113923;28;20023;-90
2021/05/11 03:27:09;;;;;;;5.80;3.20;;;;;;;10.10;60.06;99390.13;5097377;28;20115;-89
2021/05/11 03:29:34;;;;;;;3.80;3.05;;;;;;;10.46;58.55;99389.38;5079781;28;20076;-85
2021/05/11 03:32:00;;;;;;;6.85;3.55;;;;;;;10.87;57.10;99389.38;5113467;28;20047;-88
2021/05/11 03:34:25;;;;;;;3.03;2.33;;;;;;;11.33;54.91;99394.66;5112002;28;20039;-86
2021/05/11 03:36:50;;;;;;;3.17;2.85;;;;;;;11.79;54.22;99399.06;5111469;28;20448;-85
2021/05/11 03:39:16;;;;;;;5.25;3.10;;;;;;;12.28;53.15;99393.97;5112213;28;20035;-86
2021/05/11 03:41:54;;;;;;;4.10;2.50;;;;;;;12.78;51.54;99394.66;5111409;28;20027;-86
2021/05/11 03:44:26;;;;;;;5.00;2.72;;;;;;;13.35;50.26;99387.94;5112464;28;20032;-87
2021/05/11 03:46:51;;;;;;;5.90;2.75;;;;;;;13.90;49.00;99391.06;5111321;28;20024;-87
2021/05/11 03:49:17;;;;;;;2.60;2.33;;;;;;;14.43;47.62;99394.63;5112599;28;20038;-90
2021/05/11 03:51:43;;;;;;;3.75;2.55;;;;;;;14.95;46.57;99391.09;5111909;28;20023;-89
2021/05/11 03:54:10;;;;;;;3.42;2.92;;;;;;;15.47;45.13;99389.06;5112615;28;20039;-90
2021/05/11 03:56:36;;;;;;;3.20;2.70;;;;;;;15.98;44.04;99387.22;5112164;28;20042;-88
2021/05/11 03:59:03;;;;;;;11.63;7.13;;;;;;;16.46;42.88;99383.16;5111585;28;20035;-84
2021/05/11 04:01:29;;;;;;;4.68;3.47;;;;;;;16.95;42.15;99388.75;5111050;28;20023;-79
2021/05/11 04:03:55;;;;;;;4.47;2.38;;;;;;;17.35;41.02;99381.75;5111566;28;20028;-79
2021/05/11 04:06:20;;;;;;;3.25;2.95;;;;;;;17.71;40.55;99380.72;5112144;28;20678;-82
2021/05/11 04:08:59;;;;;;;2.90;2.67;;;;;;;18.08;39.32;99376.66;5110999;28;20035;-83
2021/05/11 04:16:34;;;;;;;4.55;3.20;;;;;;;19.11;37.52;99377.94;5112737;28;20030;-80
2021/05/11 04:19:00;;;;;;;12.73;8.07;;;;;;;19.48;36.45;99380.97;5111047;28;20035;-75
2021/05/11 04:21:25;;;;;;;3.47;2.80;;;;;;;19.79;36.28;99379.06;5111292;28;20019;-75
2021/05/11 04:23:52;;;;;;;3.10;2.78;;;;;;;20.08;35.85;99380.94;5112451;28;20134;-75
2021/05/11 04:26:19;;;;;;;10.07;4.53;;;;;;;20.46;35.25;99371.03;5112681;28;20028;-75
2021/05/11 04:28:46;;;;;;;2.45;2.10;;;;;;;20.81;34.65;99378.06;5112616;28;20026;-75
2021/05/11 04:31:11;;;;;;;5.18;2.75;;;;;;;21.13;33.70;99376.44;5112258;28;20030;-75
2021/05/11 04:33:37;;;;;;;3.50;3.20;;;;;;;21.47;32.97;99371.66;5112707;28;20048;-74
2021/05/11 04:36:03;;;;;;;4.05;2.80;;;;;;;21.85;32.39;99365.06;5110827;28;20102;-74
2021/05/11 04:38:29;;;;;;;3.92;2.88;;;;;;;22.18;31.76;99363.25;5112439;28;20180;-74
2021/05/11 04:40:54;;;;;;;3.22;2.85;;;;;;;22.51;31.48;99360.31;5111914;28;20099;-74
2021/05/11 04:43:24;;;;;;;6.88;4.25;;;;;;;22.77;31.18;99359.00;5110805;28;20037;-74
2021/05/11 04:45:51;;;;;;;6.00;2.55;;;;;;;23.05;31.01;99362.81;5110049;28;20024;-75
2021/05/11 04:48:17;;;;;;;5.50;2.85;;;;;;;23.24;30.73;99357.47;5112172;28;20019;-75
2021/05/11 04:50:43;;;;;;;2.65;2.45;;;;;;;23.43;30.27;99362.19;5111875;28;20031;-74
2021/05/11 04:53:08;;;;;;;2.53;2.33;;;;;;;23.49;30.12;99351.78;5111645;28;20077;-77
2021/05/11 04:55:34;;;;;;;4.10;2.47;;;;;;;23.59;30.02;99353.19;5110566;28;20509;-76
2021/05/11 04:58:00;;;;;;;8.60;2.72;;;;;;;23.69;30.26;99349.09;5110419;28;20053;-77
2021/05/11 05:00:26;;;;;;;5.38;2.33;;;;;;;23.81;30.26;99351.69;5110786;28;20051;-74
2021/05/11 05:02:54;;;;;;;2.47;2.28;;;;;;;24.00;29.94;99363.81;5111575;28;20031;-74
2021/05/11 05:05:20;;;;;;;1.77;1.67;;;;;;;23.97;29.50;99362.59;5112084;28;20023;-77
2021/05/11 05:07:45;;;;;;;2.05;1.80;;;;;;;23.40;30.24;99365.63;5111622;28;20027;-77
2021/05/11 05:10:12;;;;;;;2.47;1.75;;;;;;;22.69;30.90;99368.16;5110065;28;20026;-75
2021/05/11 05:12:38;;;;;;;1.60;1.40;;;;;;;22.11;32.07;99366.56;5111671;28;20028;-75
2021/05/11 05:15:04;;;;;;;2.35;2.20;;;;;;;21.53;32.79;99367.59;5111626;28;20432;-75
2021/05/11 05:17:30;;;;;;;3.58;2.40;;;;;;;21.09;34.33;99367.34;5110382;28;20466;-75
2021/05/11 05:19:55;;;;;;;2.45;2.25;;;;;;;20.71;34.81;99365.66;5109918;28;20015;-74
2021/05/11 05:22:21;;;;;;;2.03;1.65;;;;;;;20.58;35.35;99371.06;5111315;28;20028;-75
2021/05/11 05:24:56;;;;;;;2.10;1.90;;;;;;;20.54;35.28;99364.69;5111680;28;20094;-77
2021/05/11 05:27:26;;;;;;;2.17;2.08;;;;;;;20.43;35.73;99363.53;5111690;28;20027;-74
2021/05/11 05:29:52;;;;;;;2.95;2.00;;;;;;;20.41;35.47;99373.94;5111714;28;20031;-76
2021/05/11 05:32:18;;;;;;;2.90;2.10;;;;;;;20.21;36.07;99370.91;5111188;28;20043;-75
2021/05/11 05:34:44;;;;;;;3.67;1.90;;;;;;;20.10;36.19;99372.47;5111837;28;20020;-75
2021/05/11 05:37:10;;;;;;;1.95;1.80;;;;;;;19.90;36.21;99382.97;5111418;28;20106;-75
2021/05/11 05:39:47;;;;;;;5.28;2.75;;;;;;;19.64;37.22;99378.50;5111562;28;20024;-75
2021/05/11 05:42:13;;;;;;;3.90;2.60;;;;;;;19.31;38.00;99384.56;5110092;28;20105;-75
2021/05/11 05:44:38;;;;;;;3.42;2.63;;;;;;;19.18;37.83;99378.25;5111472;28;20020;-75
2021/05/11 05:47:04;;;;;;;3.00;2.40;;;;;;;18.83;38.21;99382.97;5111256;28;20030;-75
2021/05/11 05:49:53;;;;;;;2.22;2.13;;;;;;;18.62;38.89;99396.41;5111417;28;20023;-76
2021/05/11 05:52:23;;;;;;;3.83;2.47;;;;;;;18.29;39.94;99391.50;5111502;28;20031;-76
2021/05/11 05:54:49;;;;;;;4.88;2.63;;;;;;;18.18;40.89;99386.38;5111639;28;20023;-77
2021/05/11 05:57:15;;;;;;;2.55;2.35;;;;;;;18.11;40.30;99394.16;5109799;28;20031;-77
2021/05/11 05:59:42;;;;;;;5.65;2.60;;;;;;;17.97;40.67;99394.34;5110000;28;20016;-77
2021/05/11 06:02:18;;;;;;;3.65;2.75;;;;;;;17.92;41.08;99387.13;5111082;28;20053;-77
2021/05/11 06:04:43;;;;;;;2.38;2.17;;;;;;;17.84;41.07;99392.53;5110788;28;20053;-77
2021/05/11 06:07:09;;;;;;;5.25;2.70;;;;;;;18.00;41.43;99385.56;5110774;28;20047;-76
2021/05/11 06:09:34;;;;;;;4.15;3.05;;;;;;;18.26;40.96;99386.69;5111341;28;20027;-76
2021/05/11 06:12:06;;;;;;;3.58;2.90;;;;;;;18.38;40.85;99374.13;5110768;28;20031;-76
2021/05/11 06:17:40;;;;;;;3.22;2.70;;;;;;;18.54;39.74;99382.53;5088117;28;20070;-76
2021/05/11 06:20:06;;;;;;;6.03;2.90;;;;;;;18.66;40.26;99383.78;5106247;28;20581;-76
2021/05/11 06:22:31;;;;;;;4.25;2.97;;;;;;;18.65;40.34;99377.59;5115074;28;20503;-76
2021/05/11 06:24:57;;;;;;;5.63;3.60;;;;;;;18.73;40.33;99386.81;5113631;28;20020;-76
2021/05/11 06:27:22;;;;;;;4.63;3.33;;;;;;;18.73;40.17;99371.34;5114790;28;20395;-76
2021/05/11 06:29:51;;;;;;;3.63;3.33;;;;;;;18.85;40.10;99375.31;5114866;28;20531;-76
2021/05/11 06:32:17;;;;;;;5.68;3.28;;;;;;;18.73;40.36;99374.03;5114552;28;20043;-76
2021/05/11 06:34:47;;;;;;;4.32;2.88;;;;;;;18.65;39.93;99380.28;5113575;28;20019;-76
2021/05/11 06:37:12;;;;;;;3.03;2.70;;;;;;;18.46;39.57;99375.22;5114545;28;20406;-77
2021/05/11 06:39:39;;;;;;;5.53;3.28;;;;;;;18.28;39.91;99377.13;5113531;28;20023;-76
2021/05/11 06:42:05;;;;;;;5.53;4.03;;;;;;;18.13;40.41;99380.34;5114568;28;20051;-76
2021/05/11 06:47:25;;;;;;;5.75;3.00;;;;;;;17.93;40.33;99374.38;5114510;28;20031;-76
2021/05/11 06:52:55;;;;;;;8.30;5.00;;;;;;;17.81;41.34;99382.34;5114664;28;20028;-76
2021/05/11 06:55:14;;;;;;;6.03;5.18;;;;;;;17.76;41.34;99372.47;5113469;28;20136;-76
2021/05/11 06:57:40;;;;;;;6.07;4.20;;;;;;;17.61;40.39;99376.41;5114447;28;20027;-76
2021/05/11 07:00:06;;;;;;;5.22;3.80;;;;;;;17.51;41.01;99363.97;5114223;28;20390;-77
2021/05/11 07:02:31;;;;;;;5.68;3.78;;;;;;;17.40;41.74;99362.69;5114625;28;20031;-77
2021/05/11 07:04:57;;;;;;;4.88;3.70;;;;;;;17.32;41.16;99366.16;5114105;28;20377;-76
2021/05/11 07:07:23;;;;;;;4.78;3.53;;;;;;;17.22;42.07;99365.34;5114849;28;20028;-76
2021/05/11 07:15:00;;;;;;;5.53;3.97;;;;;;;17.26;41.11;99370.91;5114029;28;20030;-75
2021/05/11 07:17:26;;;;;;;8.57;3.95;;;;;;;17.16;40.29;99363.06;5112886;28;20020;-76
2021/05/11 07:19:52;;;;;;;8.00;3.95;;;;;;;16.92;41.17;99362.34;5112944;28;20117;-75
2021/05/11 07:22:17;;;;;;;12.70;3.97;;;;;;;16.95;40.94;99366.31;5113947;28;20032;-75
2021/05/11 07:24:46;;;;;;;6.40;4.43;;;;;;;16.77;41.23;99368.09;5113766;28;20529;-76
2021/05/11 07:32:05;;;;;;;4.72;3.90;;;;;;;16.46;40.50;99349.97;5112792;28;20283;-76
2021/05/11 07:34:30;;;;;;;8.10;3.45;;;;;;;16.45;41.96;99346.50;5113667;28;20031;-76
2021/05/11 07:36:56;;;;;;;7.75;3.97;;;;;;;16.56;42.08;99344.31;5113375;28;20024;-76
2021/05/11 07:39:23;;;;;;;5.40;4.00;;;;;;;16.67;40.96;99347.56;5111936;28;20088;-75
2021/05/11 07:41:48;;;;;;;5.75;3.72;;;;;;;16.78;41.26;99338.09;5113735;28;20459;-75
2021/05/11 07:44:14;;;;;;;5.13;3.92;;;;;;;16.95;40.82;99331.19;5113419;28;20028;-74
2021/05/11 07:47:34;;;;;;;8.65;3.50;;;;;;;17.08;38.85;99334.91;5113676;28;20077;-75
2021/05/11 08:15:41;;;;;;;5.68;2.67;;;;;;;17.28;33.78;99306.50;5113020;28;20088;-74
2021/05/11 08:28:36;;;;;;;3.88;2.17;;;;;;;17.49;30.71;99295.91;5112777;28;20050;-72
2021/05/11 08:31:01;;;;;;;3.53;2.03;;;;;;;17.60;29.15;99302.59;5112180;28;20463;-72
2021/05/11 08:33:27;;;;;;;2.10;1.90;;;;;;;17.54;27.85;99295.75;5112629;28;20085;-73
2021/05/11 08:35:52;;;;;;;2.40;1.88;;;;;;;17.53;27.75;99290.69;5112755;28;20069;-72
2021/05/11 08:38:18;;;;;;;3.10;1.70;;;;;;;17.54;27.07;99300.34;5111933;28;20039;-73
2021/05/11 08:40:44;;;;;;;7.28;2.10;;;;;;;17.57;27.28;99300.53;5112458;28;20026;-72
2021/05/11 08:43:24;;;;;;;3.88;1.90;;;;;;;17.65;28.55;99290.03;5111311;28;20098;-72
2021/05/11 08:45:50;;;;;;;7.22;2.55;;;;;;;17.66;29.67;99297.03;5112387;28;20023;-72
2021/05/11 08:48:17;;;;;;;5.10;2.22;;;;;;;17.63;30.04;99294.97;5112086;28;20023;-74
2021/05/11 08:50:45;;;;;;;5.97;2.35;;;;;;;17.73;30.29;99291.97;5112311;28;20024;-72
2021/05/11 09:04:39;;;;;;;2.95;2.40;;;;;;;17.82;32.33;99286.53;5111938;28;20389;-72
2021/05/11 09:34:55;;;;;;;2.28;1.83;;;;;;;18.10;32.35;99257.25;5111611;28;20043;-73
2021/05/11 10:46:55;;;;;;;2.40;2.20;;;;;;;18.97;31.77;99176.81;5114840;28;20023;-74
2021/05/11 10:49:34;;;;;;;3.60;1.80;;;;;;;19.04;32.50;99177.09;5114420;28;20093;-73
2021/05/11 10:52:03;;;;;;;3.88;1.95;;;;;;;19.04;31.89;99180.59;5114669;28;20124;-73
2021/05/11 10:54:34;;;;;;;3.67;2.25;;;;;;;19.11;31.97;99173.88;5113177;28;20505;-73
2021/05/11 10:57:02;;;;;;;2.00;1.85;;;;;;;19.19;32.62;99173.00;5114191;28;20019;-73
2021/05/11 10:59:40;;;;;;;3.08;2.20;;;;;;;19.32;32.98;99171.13;5114290;28;20050;-73
2021/05/11 11:04:50;;;;;;;3.80;1.88;;;;;;;19.44;32.50;99165.78;5114429;28;20038;-73
2021/05/11 11:07:16;;;;;;;2.22;1.77;;;;;;;19.49;30.58;99159.34;5112847;28;20020;-75
2021/05/11 11:09:54;;;;;;;3.47;2.30;;;;;;;19.49;31.50;99153.94;5114317;28;20023;-74
2021/05/11 11:12:21;;;;;;;3.47;2.00;;;;;;;19.51;31.90;99151.69;5113813;27;20474;-74
2021/05/11 11:14:46;;;;;;;2.50;1.70;;;;;;;19.53;32.24;99146.72;5113928;28;20419;-74
2021/05/11 11:17:14;;;;;;;3.35;2.00;;;;;;;19.52;30.66;99148.63;5113563;28;20015;-74
2021/05/11 11:19:39;;;;;;;2.92;1.98;;;;;;;19.54;30.58;99145.59;5114152;28;20024;-74
2021/05/11 11:24:56;;;;;;;2.65;1.55;;;;;;;19.59;30.63;99145.41;5113802;28;20060;-73
2021/05/11 11:27:26;;;;;;;2.53;1.48;;;;;;;19.59;29.70;99150.00;5113324;28;20016;-74
2021/05/11 11:30:00;;;;;;;4.07;1.50;;;;;;;19.60;29.84;99151.59;5113629;28;20382;-74
2021/05/11 11:32:25;;;;;;;2.03;1.55;;;;;;;19.64;30.30;99141.66;5113639;28;20070;-73
2021/05/11 11:34:55;;;;;;;2.97;1.08;;;;;;;19.66;30.88;99142.13;5113438;28;20478;-74
2021/05/11 11:37:23;;;;;;;1.48;1.15;;;;;;;19.79;32.05;99130.19;5113748;28;20030;-74
2021/05/11 11:39:51;;;;;;;3.28;1.50;;;;;;;19.93;31.62;99137.25;5113680;27;20016;-73
2021/05/11 11:42:25;;;;;;;5.90;1.17;;;;;;;20.07;30.00;99129.59;5113165;28;20031;-74
2021/05/11 11:44:57;;;;;;;1.45;1.20;;;;;;;20.10;28.82;99133.53;5113606;28;20023;-73
2021/05/11 11:47:23;;;;;;;1.50;1.33;;;;;;;20.06;27.91;99138.06;5113339;28;20027;-75
2021/05/11 11:50:00;;;;;;;1.17;1.08;;;;;;;20.07;27.71;99126.09;5113241;28;20094;-73
2021/05/11 11:52:36;;;;;;;5.38;1.77;;;;;;;20.11;27.58;99135.13;5113165;28;20451;-74
2021/05/11 12:00:14;;;;;;;2.13;1.33;;;;;;;20.16;26.18;99118.63;5112968;28;20056;-73
2021/05/11 12:03:02;;;;;;;3.33;1.70;;;;;;;20.22;26.86;99108.34;5112960;28;20390;-73
2021/05/11 12:05:32;;;;;;;1.98;1.10;;;;;;;20.30;27.82;99110.16;5112998;28;20024;-73
2021/05/11 12:10:41;;;;;;;3.15;2.95;;;;;;;20.51;27.34;99091.00;5113093;28;20019;-73
2021/05/11 12:13:09;;;;;;;1.35;1.00;;;;;;;20.55;26.85;99088.41;5112705;28;20444;-73
2021/05/11 12:15:34;;;;;;;;;;;;;;;20.63;26.84;99088.28;5113173;28;20026;-73
2021/05/11 12:18:09;;;;;;;0.93;0.85;;;;;;;20.67;26.35;99084.88;5112468;28;20267;-74
2021/05/11 12:20:35;;;;;;;2.17;1.00;;;;;;;20.67;26.46;99082.16;5112383;28;20026;-74
2021/05/11 12:23:21;;;;;;;2.95;1.00;;;;;;;20.66;25.11;99072.44;5112843;28;20088;-74
2021/05/11 12:26:02;;;;;;;1.42;0.90;;;;;;;20.65;26.35;99060.75;5112218;28;20043;-73
2021/05/11 12:28:38;;;;;;;0.80;0.80;;;;;;;20.65;25.98;99060.75;5112554;28;20098;-74
2021/05/11 12:31:09;;;;;;;1.48;1.05;;;;;;;20.63;26.68;99058.38;5112419;28;20055;-73
2021/05/11 12:33:39;;;;;;;1.98;0.98;;;;;;;20.62;26.21;99051.34;5112536;28;20048;-74
2021/05/11 12:36:40;;;;;;;1.17;1.00;;;;;;;20.63;25.90;99052.94;5112520;28;20019;-74
2021/05/11 12:39:20;;;;;;;1.67;0.98;;;;;;;20.66;24.89;99053.41;5097681;28;20028;-73
2021/05/11 12:41:46;;;;;;;0.73;0.73;;;;;;;20.67;25.17;99044.13;5112310;28;20024;-74
2021/05/11 12:44:30;;;;;;;2.75;0.90;;;;;;;20.72;24.85;99039.25;5112140;28;20107;-73
2021/05/11 12:47:00;;;;;;;1.83;1.00;;;;;;;20.82;25.22;99042.63;5112526;28;20061;-72
2021/05/11 12:49:26;;;;;;;0.90;0.90;;;;;;;20.85;24.93;99031.88;5112180;28;20022;-72
2021/05/11 12:51:54;;;;;;;1.33;1.13;;;;;;;20.91;25.86;99035.91;5112171;28;20019;-72
2021/05/11 12:54:26;;;;;;;3.28;0.90;;;;;;;20.97;25.87;99027.50;5112003;28;20016;-75
2021/05/11 12:57:16;;;;;;;3.10;1.30;;;;;;;21.01;25.99;99022.97;5110361;28;20026;-74
2021/05/11 13:16:33;;;;;;;1.05;0.90;;;;;;;21.37;28.09;99008.41;5111574;28;20030;-74
2021/05/11 13:27:17;;;;;;;1.83;0.60;;;;;;;21.54;28.11;98992.88;5111745;28;20097;-75
2021/05/11 13:34:55;;;;;;;1.42;1.08;;;;;;;21.56;28.03;98969.63;5111390;28;19930;-74
2021/05/11 13:37:26;;;;;;;1.02;0.93;;;;;;;21.58;27.42;98972.81;5111021;28;20513;-72
2021/05/11 13:39:52;;;;;;;2.40;0.90;;;;;;;21.61;27.25;98965.84;5111491;28;20043;-75
2021/05/11 13:42:17;;;;;;;0.63;0.63;;;;;;;21.62;27.16;98964.72;5109969;28;20020;-74
2021/05/11 13:44:42;;;;;;;2.90;1.17;;;;;;;21.69;26.97;98967.63;5111270;28;20028;-75
2021/05/11 13:47:08;;;;;;;3.75;0.95;;;;;;;21.71;26.91;98959.88;5110972;28;20042;-75
2021/05/11 13:49:33;;;;;;;1.70;0.98;;;;;;;21.72;27.24;98958.72;5110971;28;20036;-74
2021/05/11 13:51:59;;;;;;;2.92;1.23;;;;;;;21.78;28.03;98953.81;5111219;28;20023;-74
2021/05/11 13:54:25;;;;;;;1.25;0.93;;;;;;;21.83;27.36;98948.09;5111296;28;20104;-74
2021/05/11 14:04:37;;;;;;;1.00;0.60;;;;;;;21.83;27.21;98942.66;5111363;28;20092;-72
2021/05/11 14:07:03;;;;;;;1.73;0.82;;;;;;;21.91;27.37;98947.13;5111000;28;20031;-72
2021/05/11 14:09:29;;;;;;;3.47;1.20;;;;;;;21.92;27.31;98947.91;5110713;28;20557;-74
2021/05/11 14:11:55;;;;;;;1.40;0.82;;;;;;;21.97;27.59;98946.84;5102995;28;20054;-75
2021/05/11 14:14:20;;;;;;;3.08;1.15;;;;;;;21.99;27.75;98952.72;5110808;28;20546;-74
2021/05/11 14:16:47;;;;;;;1.65;1.13;;;;;;;21.98;26.70;98940.25;5111239;28;20473;-75
2021/05/11 14:19:13;;;;;;;2.55;1.17;;;;;;;21.98;26.82;98940.25;5111067;28;20089;-77
2021/05/11 14:21:38;;;;;;;3.38;1.00;;;;;;;22.04;27.30;98942.34;5109775;28;20026;-76
2021/05/11 14:24:04;;;;;;;1.65;0.80;;;;;;;22.05;25.90;98935.75;5109348;28;20431;-74
2021/05/11 14:26:30;;;;;;;0.80;0.80;;;;;;;22.05;26.17;98929.53;5111025;28;20024;-77
2021/05/11 14:28:56;;;;;;;0.82;0.80;;;;;;;22.10;25.94;98933.91;5110945;28;20055;-75
2021/05/11 14:31:24;;;;;;;3.63;1.48;;;;;;;22.12;25.83;98926.16;5110893;28;20114;-76
2021/05/11 14:33:49;;;;;;;0.73;0.73;;;;;;;22.14;25.82;98923.88;5110145;28;20047;-73
2021/05/11 14:36:15;;;;;;;1.35;0.80;;;;;;;22.10;26.03;98910.16;5110710;28;20030;-76
2021/05/11 14:38:41;;;;;;;0.77;0.65;;;;;;;22.14;25.86;98912.97;5110448;28;20609;-75
2021/05/11 14:41:08;;;;;;;1.15;0.70;;;;;;;22.05;25.25;98911.25;5111070;28;20031;-76
2021/05/11 14:43:34;;;;;;;1.08;0.60;;;;;;;22.05;25.38;98907.75;5114444;28;20195;-79
2021/05/11 14:46:02;;;;;;;0.80;0.75;;;;;;;22.05;25.42;98902.28;5114412;28;20026;-80
2021/05/11 14:48:30;;;;;;;0.82;0.82;;;;;;;22.10;25.81;98896.56;5112938;28;20027;-78
2021/05/11 14:50:56;;;;;;;2.42;0.95;;;;;;;22.07;26.05;98906.22;5113469;28;20047;-81
2021/05/11 14:53:21;;;;;;;3.80;1.02;;;;;;;22.01;25.56;98899.50;5112440;28;20027;-77
2021/05/11 14:55:47;;;;;;;0.70;0.70;;;;;;;22.03;26.32;98896.41;5113878;28;20470;-79
2021/05/11 14:58:12;;;;;;;1.23;0.90;;;;;;;22.02;26.77;98903.78;5112433;28;20100;-85
2021/05/11 15:00:38;;;;;;;1.17;0.90;;;;;;;21.97;26.20;98903.28;5112530;28;20024;-85
2021/05/11 15:03:04;;;;;;;1.65;1.20;;;;;;;21.96;26.60;98896.25;5113422;28;20034;-83
2021/05/11 15:05:30;;;;;;;2.35;0.95;;;;;;;21.96;26.39;98894.34;5112903;28;20039;-82
2021/05/11 15:07:55;;;;;;;0.77;0.68;;;;;;;21.98;26.57;98891.25;5112901;28;20023;-83
2021/05/11 15:10:21;;;;;;;2.05;1.00;;;;;;;21.99;27.13;98890.09;5113098;28;20623;-82
2021/05/11 15:12:48;;;;;;;1.73;1.05;;;;;;;22.01;27.23;98890.53;5113059;28;20547;-85
2021/05/11 15:15:21;;;;;;;1.23;0.98;;;;;;;21.96;26.53;98879.91;5113216;28;20093;-82
2021/05/11 15:20:14;;;;;;;2.63;1.40;;;;;;;21.87;27.21;98867.31;5114508;28;20503;-82
2021/05/11 15:22:41;;;;;;;0.80;0.80;;;;;;;21.87;27.16;98861.06;5112925;28;20019;-80
2021/05/11 15:25:07;;;;;;;1.50;0.88;;;;;;;21.83;27.28;98861.00;5113099;28;20430;-82
2021/05/11 15:27:34;;;;;;;1.40;0.88;;;;;;;21.81;27.24;98859.78;5112448;28;20020;-84
2021/05/11 15:30:00;;;;;;;1.57;1.00;;;;;;;21.81;27.08;98857.81;5112677;28;20397;-83
2021/05/11 15:32:39;;;;;;;1.17;0.75;;;;;;;21.84;27.53;98854.41;5112153;28;20131;-83
2021/05/11 15:35:09;;;;;;;1.17;0.98;;;;;;;21.85;27.67;98855.19;5112600;28;20023;-83
2021/05/11 15:37:35;;;;;;;1.40;1.17;;;;;;;21.87;27.94;98859.16;5112313;28;20023;-83
2021/05/11 15:40:04;;;;;;;1.45;0.93;;;;;;;21.88;28.14;98857.97;5112559;28;20375;-82
2021/05/11 15:42:29;;;;;;;1.58;1.10;;;;;;;21.90;27.60;98852.97;5112227;28;20525;-83
2021/05/11 15:44:55;;;;;;;1.40;1.27;;;;;;;21.89;27.90;98853.34;5112380;28;20035;-82
2021/05/11 15:47:20;;;;;;;2.20;1.00;;;;;;;21.89;27.66;98850.63;5112051;28;20028;-82
2021/05/11 15:49:46;;;;;;;3.83;2.03;;;;;;;21.89;27.29;98859.56;5112258;28;20020;-83
2021/05/11 15:52:12;;;;;;;2.67;1.90;;;;;;;21.86;27.06;98856.75;5112255;28;20042;-82
2021/05/11 15:54:38;;;;;;;2.92;1.70;;;;;;;21.81;26.23;98860.53;5111852;28;20019;-83
2021/05/11 15:57:04;;;;;;;2.00;1.08;;;;;;;21.75;26.01;98862.78;5112062;28;20462;-84
2021/05/11 15:59:30;;;;;;;1.52;1.10;;;;;;;21.74;26.39;98852.25;5111910;28;20031;-84
2021/05/11 16:01:55;;;;;;;1.08;0.98;;;;;;;21.70;25.83;98854.91;5112138;28;20428;-84
2021/05/11 16:04:21;;;;;;;1.23;0.80;;;;;;;21.70;26.23;98856.81;5112012;28;20081;-83
2021/05/11 16:06:46;;;;;;;1.85;0.60;;;;;;;21.69;26.01;98857.94;5111992;28;20478;-84
2021/05/11 16:09:12;;;;;;;1.77;1.00;;;;;;;21.71;26.47;98859.16;5112112;28;20470;-82
2021/05/11 16:11:38;;;;;;;1.35;1.13;;;;;;;21.69;26.42;98861.47;5111870;28;20099;-82
2021/05/11 16:14:04;;;;;;;1.30;0.80;;;;;;;21.71;26.37;98855.69;5111986;28;20462;-83
2021/05/11 16:16:31;;;;;;;1.00;0.73;;;;;;;21.69;26.53;98866.13;5111273;28;20024;-82
2021/05/11 16:18:56;;;;;;;0.80;0.63;;;;;;;21.61;26.78;98846.13;5111901;28;20030;-83
2021/05/11 16:21:22;;;;;;;1.70;0.73;;;;;;;21.57;26.85;98850.72;5111635;28;20390;-83
2021/05/11 16:23:48;;;;;;;1.10;1.00;;;;;;;21.53;27.12;98857.97;5111460;28;20080;-84
2021/05/11 16:26:13;;;;;;;0.88;0.82;;;;;;;21.48;27.50;98850.84;5111615;28;20024;-82
2021/05/11 16:28:39;;;;;;;2.67;0.95;;;;;;;21.46;27.50;98846.91;5111464;28;20031;-84
2021/05/11 16:31:05;;;;;;;1.25;0.55;;;;;;;21.42;27.57;98847.63;5111490;28;20027;-82
2021/05/11 16:33:31;;;;;;;2.30;0.77;;;;;;;21.39;28.08;98850.28;5110838;28;20052;-82
2021/05/11 16:35:56;;;;;;;0.60;0.60;;;;;;;21.35;28.17;98847.47;5111416;28;20027;-83
2021/05/11 16:38:22;;;;;;;0.80;0.70;;;;;;;21.30;28.08;98847.75;5111231;28;20028;-84
2021/05/11 16:40:47;;;;;;;0.85;0.85;;;;;;;21.28;28.61;98847.28;5111307;28;20026;-83
2021/05/11 16:43:15;;;;;;;2.92;1.88;;;;;;;21.22;28.38;98846.00;5111306;28;20024;-82
2021/05/11 16:45:40;;;;;;;1.77;0.83;;;;;;;21.19;28.39;98842.03;5111041;28;20460;-82
2021/05/11 16:48:06;;;;;;;1.83;1.20;;;;;;;21.11;28.50;98838.34;5109936;28;20070;-82
2021/05/11 16:50:35;;;;;;;1.08;1.00;;;;;;;21.10;28.91;98844.16;5111239;28;20027;-82
2021/05/11 16:53:04;;;;;;;1.75;0.98;;;;;;;21.07;28.86;98850.31;5111232;28;20023;-81
2021/05/11 16:55:30;;;;;;;1.00;0.90;;;;;;;20.97;29.17;98837.22;5110566;28;20509;-81
2021/05/11 16:57:59;;;;;;;1.08;1.02;;;;;;;20.95;29.12;98849.22;5105039;28;20035;-81
2021/05/11 17:00:27;;;;;;;1.13;1.00;;;;;;;20.92;29.28;98846.41;5110711;28;20393;-80